createdAt,value
2017-08-15T00:00:47.897Z,1004.3
2017-08-15T00:01:49.433Z,1004.3
2017-08-15T00:02:51.014Z,1004.3
2017-08-15T00:03:52.558Z,1004.3
2017-08-15T00:04:54.077Z,1004.2
2017-08-15T00:05:55.723Z,1004.2
2017-08-15T00:06:57.370Z,1004.2
2017-08-15T00:07:58.898Z,1004.2
2017-08-15T00:09:00.462Z,1004.2
2017-08-15T00:10:02.097Z,1004.2
2017-08-15T00:11:03.668Z,1004.3
2017-08-15T00:12:05.223Z,1004.2
2017-08-15T00:13:06.806Z,1004.2
2017-08-15T00:14:08.386Z,1004.2
2017-08-15T00:15:09.968Z,1004.2
2017-08-15T00:16:11.585Z,1004.2
2017-08-15T00:17:13.160Z,1004.2
2017-08-15T00:18:14.743Z,1004.2
2017-08-15T00:19:16.387Z,1004.3
2017-08-15T00:20:17.951Z,1004.3
2017-08-15T00:21:19.555Z,1004.3
2017-08-15T00:22:21.197Z,1004.3
2017-08-15T00:23:22.789Z,1004.3
2017-08-15T00:24:24.390Z,1004.3
2017-08-15T00:25:25.952Z,1004.3
2017-08-15T00:26:27.506Z,1004.3
2017-08-15T00:27:30.115Z,1004.3
2017-08-15T00:28:31.717Z,1004.2
2017-08-15T00:29:33.347Z,1004.3
2017-08-15T00:30:34.912Z,1004.3
2017-08-15T00:31:36.496Z,1004.3
2017-08-15T00:32:38.067Z,1004.2
2017-08-15T00:33:39.677Z,1004.3
2017-08-15T00:34:41.218Z,1004.2
2017-08-15T00:35:42.766Z,1004.2
2017-08-15T00:36:44.333Z,1004.2
2017-08-15T00:37:45.941Z,1004.2
2017-08-15T00:38:47.477Z,1004.2
2017-08-15T00:39:49.123Z,1004.2
2017-08-15T00:40:50.716Z,1004.2
2017-08-15T00:41:53.265Z,1004.1
2017-08-15T00:42:54.827Z,1004.1
2017-08-15T00:43:56.426Z,1004.1
2017-08-15T00:44:58.042Z,1004.1
2017-08-15T00:45:59.682Z,1004.1
2017-08-15T00:47:01.305Z,1004.1
2017-08-15T00:48:03.038Z,1004.1
2017-08-15T00:49:04.839Z,1004.1
2017-08-15T00:50:06.567Z,1004.1
2017-08-15T00:51:08.265Z,1004.1
2017-08-15T00:52:09.950Z,1004.1
2017-08-15T00:53:11.583Z,1004.1
2017-08-15T00:54:13.264Z,1004.1
2017-08-15T00:55:14.841Z,1004.1
2017-08-15T00:56:16.511Z,1004.1
2017-08-15T00:57:18.156Z,1004.1
2017-08-15T00:58:19.821Z,1004.1
2017-08-15T00:59:21.419Z,1004.1
2017-08-15T01:00:23.021Z,1004.1
2017-08-15T01:01:24.603Z,1004.1
2017-08-15T01:02:26.252Z,1004.0
2017-08-15T01:03:27.782Z,1004.1
2017-08-15T01:04:29.365Z,1004.0
2017-08-15T01:05:30.949Z,1004.0
2017-08-15T01:06:32.587Z,1004.0
2017-08-15T01:07:34.299Z,1004.0
2017-08-15T01:08:35.915Z,1004.0
2017-08-15T01:09:37.464Z,1004.1
2017-08-15T01:10:39.096Z,1004.0
2017-08-15T01:11:40.644Z,1004.1
2017-08-15T01:12:42.262Z,1004.1
2017-08-15T01:13:43.857Z,1004.1
2017-08-15T01:14:45.465Z,1004.1
2017-08-15T01:15:47.052Z,1004.1
2017-08-15T01:16:48.634Z,1004.1
2017-08-15T01:17:50.259Z,1004.1
2017-08-15T01:18:51.876Z,1004.1
2017-08-15T01:19:53.490Z,1004.2
2017-08-15T01:20:55.131Z,1004.2
2017-08-15T01:21:56.693Z,1004.2
2017-08-15T01:22:58.324Z,1004.1
2017-08-15T01:23:59.980Z,1004.1
2017-08-15T01:25:01.524Z,1004.2
2017-08-15T01:26:03.143Z,1004.1
2017-08-15T01:27:04.736Z,1004.1
2017-08-15T01:28:06.372Z,1004.1
2017-08-15T01:29:08.008Z,1004.2
2017-08-15T01:30:09.646Z,1004.1
2017-08-15T01:31:11.212Z,1004.2
2017-08-15T01:32:12.875Z,1004.2
2017-08-15T01:33:15.531Z,1004.2
2017-08-15T01:34:17.170Z,1004.2
2017-08-15T01:35:18.701Z,1004.2
2017-08-15T01:36:20.335Z,1004.1
2017-08-15T01:37:22.949Z,1004.2
2017-08-15T01:38:24.639Z,1004.1
2017-08-15T01:39:26.302Z,1004.2
2017-08-15T01:40:27.839Z,1004.2
2017-08-15T01:41:29.515Z,1004.2
2017-08-15T01:42:31.221Z,1004.2
2017-08-15T01:43:32.881Z,1004.1
2017-08-15T01:44:34.605Z,1004.2
2017-08-15T01:45:36.314Z,1004.2
2017-08-15T01:46:37.944Z,1004.2
2017-08-15T01:47:40.573Z,1004.2
2017-08-15T01:48:42.268Z,1004.2
2017-08-15T01:49:45.913Z,1004.2
2017-08-15T01:50:47.561Z,1004.2
2017-08-15T01:51:49.149Z,1004.2
2017-08-15T01:52:50.702Z,1004.2
2017-08-15T01:53:52.681Z,1004.1
2017-08-15T01:54:54.243Z,1004.2
2017-08-15T01:55:55.870Z,1004.1
2017-08-15T01:56:57.388Z,1004.1
2017-08-15T01:57:58.941Z,1004.1
2017-08-15T01:59:00.498Z,1004.1
2017-08-15T02:00:02.051Z,1004.0
2017-08-15T02:01:03.618Z,1004.0
2017-08-15T02:02:05.151Z,1004.0
2017-08-15T02:03:06.757Z,1004.0
2017-08-15T02:04:08.293Z,1004.0
2017-08-15T02:05:09.848Z,1004.0
2017-08-15T02:06:11.337Z,1004.0
2017-08-15T02:07:12.898Z,1004.0
2017-08-15T02:08:14.538Z,1004.1
2017-08-15T02:09:16.243Z,1004.0
2017-08-15T02:10:17.812Z,1004.0
2017-08-15T02:11:19.455Z,1004.0
2017-08-15T02:12:21.135Z,1004.0
2017-08-15T02:13:22.714Z,1004.0
2017-08-15T02:14:24.301Z,1004.0
2017-08-15T02:15:25.953Z,1004.0
2017-08-15T02:16:27.505Z,1004.1
2017-08-15T02:17:29.076Z,1004.1
2017-08-15T02:18:30.652Z,1004.1
2017-08-15T02:19:32.274Z,1004.1
2017-08-15T02:20:34.942Z,1004.1
2017-08-15T02:21:36.511Z,1004.2
2017-08-15T02:22:38.192Z,1004.2
2017-08-15T02:23:39.772Z,1004.2
2017-08-15T02:24:41.467Z,1004.2
2017-08-15T02:25:43.104Z,1004.2
2017-08-15T02:26:44.823Z,1004.2
2017-08-15T02:27:46.414Z,1004.2
2017-08-15T02:28:48.031Z,1004.3
2017-08-15T02:29:49.642Z,1004.3
2017-08-15T02:30:51.349Z,1004.3
2017-08-15T02:31:53.017Z,1004.3
2017-08-15T02:32:54.694Z,1004.3
2017-08-15T02:33:56.288Z,1004.3
2017-08-15T02:34:59.949Z,1004.3
2017-08-15T02:36:01.539Z,1004.3
2017-08-15T02:37:03.236Z,1004.3
2017-08-15T02:38:04.947Z,1004.4
2017-08-15T02:39:06.633Z,1004.4
2017-08-15T02:40:08.289Z,1004.4
2017-08-15T02:41:09.959Z,1004.3
2017-08-15T02:42:11.645Z,1004.3
2017-08-15T02:43:13.243Z,1004.3
2017-08-15T02:44:14.943Z,1004.3
2017-08-15T02:45:17.611Z,1004.3
2017-08-15T02:46:19.220Z,1004.3
2017-08-15T02:47:20.978Z,1004.3
2017-08-15T02:48:22.563Z,1004.3
2017-08-15T02:49:24.170Z,1004.3
2017-08-15T02:50:25.814Z,1004.3
2017-08-15T02:51:27.462Z,1004.3
2017-08-15T02:52:29.208Z,1004.3
2017-08-15T02:53:30.815Z,1004.3
2017-08-15T02:54:32.518Z,1004.3
2017-08-15T02:55:35.167Z,1004.3
2017-08-15T02:56:36.816Z,1004.3
2017-08-15T02:57:38.504Z,1004.3
2017-08-15T02:58:40.165Z,1004.2
2017-08-15T02:59:41.777Z,1004.2
2017-08-15T03:00:43.426Z,1004.2
2017-08-15T03:01:45.090Z,1004.2
2017-08-15T03:02:46.731Z,1004.2
2017-08-15T03:03:48.778Z,1004.2
2017-08-15T03:04:50.434Z,1004.2
2017-08-15T03:05:52.122Z,1004.2
2017-08-15T03:06:53.791Z,1004.2
2017-08-15T03:07:55.436Z,1004.2
2017-08-15T03:08:57.108Z,1004.2
2017-08-15T03:09:58.680Z,1004.1
2017-08-15T03:11:00.323Z,1004.1
2017-08-15T03:12:03.991Z,1004.2
2017-08-15T03:13:05.751Z,1004.2
2017-08-15T03:14:07.461Z,1004.1
2017-08-15T03:15:09.142Z,1004.1
2017-08-15T03:16:10.812Z,1004.1
2017-08-15T03:17:12.505Z,1004.1
2017-08-15T03:18:14.171Z,1004.1
2017-08-15T03:19:15.861Z,1004.1
2017-08-15T03:20:17.487Z,1004.1
2017-08-15T03:21:19.077Z,1004.1
2017-08-15T03:22:20.613Z,1004.1
2017-08-15T03:23:22.160Z,1004.1
2017-08-15T03:24:23.743Z,1004.1
2017-08-15T03:25:25.331Z,1004.2
2017-08-15T03:26:26.889Z,1004.1
2017-08-15T03:27:28.389Z,1004.2
2017-08-15T03:28:29.971Z,1004.1
2017-08-15T03:29:31.549Z,1004.1
2017-08-15T03:30:33.111Z,1004.1
2017-08-15T03:31:34.723Z,1004.1
2017-08-15T03:32:36.354Z,1004.1
2017-08-15T03:33:37.950Z,1004.1
2017-08-15T03:34:39.617Z,1004.1
2017-08-15T03:35:41.271Z,1004.1
2017-08-15T03:36:42.897Z,1004.1
2017-08-15T03:37:44.464Z,1004.1
2017-08-15T03:38:46.020Z,1004.1
2017-08-15T03:39:47.636Z,1004.1
2017-08-15T03:40:49.257Z,1004.1
2017-08-15T03:41:50.877Z,1004.1
2017-08-15T03:42:52.605Z,1004.1
2017-08-15T03:43:54.233Z,1004.1
2017-08-15T03:44:55.838Z,1004.1
2017-08-15T03:45:57.385Z,1004.1
2017-08-15T03:46:58.962Z,1004.1
2017-08-15T03:48:00.579Z,1004.1
2017-08-15T03:49:02.101Z,1004.1
2017-08-15T03:50:03.862Z,1004.1
2017-08-15T03:51:06.484Z,1004.2
2017-08-15T03:52:08.070Z,1004.1
2017-08-15T03:53:09.636Z,1004.1
2017-08-15T03:54:11.259Z,1004.1
2017-08-15T03:55:12.851Z,1004.1
2017-08-15T03:56:14.367Z,1004.2
2017-08-15T03:57:15.913Z,1004.2
2017-08-15T03:58:17.472Z,1004.2
2017-08-15T03:59:19.084Z,1004.2
2017-08-15T04:00:20.724Z,1004.2
2017-08-15T04:01:23.438Z,1004.2
2017-08-15T04:02:25.082Z,1004.2
2017-08-15T04:03:26.730Z,1004.2
2017-08-15T04:04:28.373Z,1004.2
2017-08-15T04:05:31.046Z,1004.3
2017-08-15T04:06:32.707Z,1004.2
2017-08-15T04:07:34.368Z,1004.2
2017-08-15T04:08:36.127Z,1004.3
2017-08-15T04:09:37.841Z,1004.3
2017-08-15T04:10:39.413Z,1004.3
2017-08-15T04:11:41.020Z,1004.3
2017-08-15T04:12:42.662Z,1004.3
2017-08-15T04:13:44.303Z,1004.3
2017-08-15T04:14:45.908Z,1004.3
2017-08-15T04:15:48.456Z,1004.3
2017-08-15T04:16:50.017Z,1004.3
2017-08-15T04:17:51.671Z,1004.3
2017-08-15T04:18:53.274Z,1004.3
2017-08-15T04:19:54.908Z,1004.3
2017-08-15T04:20:56.534Z,1004.3
2017-08-15T04:21:58.221Z,1004.3
2017-08-15T04:22:59.929Z,1004.3
2017-08-15T04:24:02.604Z,1004.3
2017-08-15T04:25:04.215Z,1004.3
2017-08-15T04:26:05.934Z,1004.3
2017-08-15T04:27:07.541Z,1004.4
2017-08-15T04:28:09.223Z,1004.4
2017-08-15T04:29:10.847Z,1004.4
2017-08-15T04:30:12.537Z,1004.4
2017-08-15T04:31:14.297Z,1004.4
2017-08-15T04:32:16.004Z,1004.4
2017-08-15T04:33:17.637Z,1004.4
2017-08-15T04:34:19.251Z,1004.4
2017-08-15T04:35:20.958Z,1004.4
2017-08-15T04:36:22.523Z,1004.4
2017-08-15T04:37:24.231Z,1004.4
2017-08-15T04:38:25.895Z,1004.5
2017-08-15T04:39:27.502Z,1004.4
2017-08-15T04:40:29.128Z,1004.5
2017-08-15T04:41:30.764Z,1004.5
2017-08-15T04:42:32.356Z,1004.5
2017-08-15T04:43:33.964Z,1004.5
2017-08-15T04:44:35.735Z,1004.5
2017-08-15T04:45:37.401Z,1004.5
2017-08-15T04:46:38.964Z,1004.4
2017-08-15T04:47:40.816Z,1004.4
2017-08-15T04:48:42.488Z,1004.5
2017-08-15T04:49:44.214Z,1004.4
2017-08-15T04:50:45.857Z,1004.4
2017-08-15T04:51:47.536Z,1004.4
2017-08-15T04:52:49.253Z,1004.4
2017-08-15T04:53:50.937Z,1004.4
2017-08-15T04:54:53.726Z,1004.4
2017-08-15T04:55:55.380Z,1004.4
2017-08-15T04:56:56.994Z,1004.4
2017-08-15T04:57:58.512Z,1004.4
2017-08-15T04:59:00.149Z,1004.4
2017-08-15T05:00:01.750Z,1004.4
2017-08-15T05:01:04.487Z,1004.3
2017-08-15T05:02:06.025Z,1004.3
2017-08-15T05:03:07.591Z,1004.2
2017-08-15T05:04:09.181Z,1004.2
2017-08-15T05:05:10.740Z,1004.3
2017-08-15T05:06:12.309Z,1004.2
2017-08-15T05:07:13.864Z,1004.2
2017-08-15T05:08:15.432Z,1004.2
2017-08-15T05:09:17.062Z,1004.1
2017-08-15T05:10:18.781Z,1004.1
2017-08-15T05:11:20.413Z,1004.1
2017-08-15T05:12:22.098Z,1004.1
2017-08-15T05:13:23.733Z,1004.1
2017-08-15T05:14:25.451Z,1004.1
2017-08-15T05:15:27.021Z,1004.1
2017-08-15T05:16:28.564Z,1004.1
2017-08-15T05:17:30.194Z,1004.1
2017-08-15T05:18:31.999Z,1004.1
2017-08-15T05:19:34.617Z,1004.1
2017-08-15T05:20:36.172Z,1004.1
2017-08-15T05:21:38.881Z,1004.1
2017-08-15T05:22:40.429Z,1004.1
2017-08-15T05:23:42.049Z,1004.1
2017-08-15T05:24:43.706Z,1004.2
2017-08-15T05:25:45.352Z,1004.2
2017-08-15T05:26:47.037Z,1004.2
2017-08-15T05:27:48.709Z,1004.2
2017-08-15T05:28:50.327Z,1004.2
2017-08-15T05:29:52.009Z,1004.2
2017-08-15T05:30:53.695Z,1004.3
2017-08-15T05:31:55.511Z,1004.3
2017-08-15T05:32:57.119Z,1004.3
2017-08-15T05:33:58.824Z,1004.3
2017-08-15T05:35:00.552Z,1004.3
2017-08-15T05:36:02.206Z,1004.3
2017-08-15T05:37:03.786Z,1004.4
2017-08-15T05:38:05.549Z,1004.4
2017-08-15T05:39:07.157Z,1004.4
2017-08-15T05:40:08.767Z,1004.4
2017-08-15T05:41:10.456Z,1004.4
2017-08-15T05:42:12.262Z,1004.5
2017-08-15T05:43:13.950Z,1004.5
2017-08-15T05:44:15.596Z,1004.5
2017-08-15T05:45:17.227Z,1004.5
2017-08-15T05:46:19.042Z,1004.5
2017-08-15T05:47:20.832Z,1004.5
2017-08-15T05:48:22.709Z,1004.5
2017-08-15T05:49:24.337Z,1004.5
2017-08-15T05:50:25.987Z,1004.5
2017-08-15T05:51:27.640Z,1004.5
2017-08-15T05:52:29.345Z,1004.5
2017-08-15T05:53:31.009Z,1004.5
2017-08-15T05:54:32.617Z,1004.4
2017-08-15T05:55:34.235Z,1004.5
2017-08-15T05:56:36.008Z,1004.5
2017-08-15T05:57:37.656Z,1004.5
2017-08-15T05:58:39.168Z,1004.5
2017-08-15T05:59:40.788Z,1004.5
2017-08-15T06:00:42.500Z,1004.5
2017-08-15T06:01:44.064Z,1004.5
2017-08-15T06:02:45.731Z,1004.5
2017-08-15T06:03:47.325Z,1004.5
2017-08-15T06:04:49.900Z,1004.6
2017-08-15T06:05:51.496Z,1004.6
2017-08-15T06:06:53.020Z,1004.6
2017-08-15T06:07:54.559Z,1004.6
2017-08-15T06:08:56.125Z,1004.6
2017-08-15T06:09:57.685Z,1004.6
2017-08-15T06:10:59.254Z,1004.6
2017-08-15T06:12:00.833Z,1004.6
2017-08-15T06:13:02.442Z,1004.6
2017-08-15T06:14:04.034Z,1004.6
2017-08-15T06:15:05.603Z,1004.6
2017-08-15T06:16:07.173Z,1004.7
2017-08-15T06:17:08.826Z,1004.7
2017-08-15T06:18:10.490Z,1004.8
2017-08-15T06:19:12.089Z,1004.8
2017-08-15T06:20:13.709Z,1004.8
2017-08-15T06:21:15.433Z,1004.8
2017-08-15T06:22:17.054Z,1004.8
2017-08-15T06:23:18.618Z,1004.8
2017-08-15T06:24:20.286Z,1004.8
2017-08-15T06:25:21.945Z,1004.8
2017-08-15T06:26:23.558Z,1004.9
2017-08-15T06:27:25.130Z,1004.9
2017-08-15T06:28:26.681Z,1004.8
2017-08-15T06:29:28.344Z,1004.8
2017-08-15T06:30:29.943Z,1004.8
2017-08-15T06:31:31.525Z,1004.8
2017-08-15T06:32:33.089Z,1004.8
2017-08-15T06:33:34.728Z,1004.8
2017-08-15T06:34:36.417Z,1004.8
2017-08-15T06:35:39.003Z,1004.7
2017-08-15T06:36:40.611Z,1004.7
2017-08-15T06:37:42.188Z,1004.7
2017-08-15T06:38:43.780Z,1004.8
2017-08-15T06:39:46.362Z,1004.8
2017-08-15T06:40:47.910Z,1004.8
2017-08-15T06:41:49.521Z,1004.8
2017-08-15T06:42:51.198Z,1004.8
2017-08-15T06:43:52.887Z,1004.8
2017-08-15T06:44:54.492Z,1004.8
2017-08-15T06:45:56.197Z,1004.8
2017-08-15T06:46:57.851Z,1004.8
2017-08-15T06:48:00.424Z,1004.8
2017-08-15T06:49:01.998Z,1004.8
2017-08-15T06:50:03.548Z,1004.9
2017-08-15T06:51:05.106Z,1004.9
2017-08-15T06:52:06.650Z,1004.9
2017-08-15T06:53:08.169Z,1004.9
2017-08-15T06:54:09.764Z,1004.8
2017-08-15T06:55:11.316Z,1004.8
2017-08-15T06:56:12.860Z,1004.8
2017-08-15T06:57:14.472Z,1004.8
2017-08-15T06:58:16.985Z,1004.8
2017-08-15T06:59:18.518Z,1004.8
2017-08-15T07:00:20.118Z,1004.7
2017-08-15T07:01:41.761Z,1004.8
2017-08-15T07:02:43.213Z,1004.7
2017-08-15T07:03:44.615Z,1004.8
2017-08-15T07:04:46.057Z,1004.7
2017-08-15T07:05:48.469Z,1004.7
2017-08-15T07:06:49.865Z,1004.8
2017-08-15T07:07:51.327Z,1004.8
2017-08-15T07:08:52.714Z,1004.8
2017-08-15T07:09:55.230Z,1004.8
2017-08-15T07:10:56.670Z,1004.9
2017-08-15T07:11:58.099Z,1004.8
2017-08-15T07:12:59.511Z,1004.9
2017-08-15T07:14:00.952Z,1004.9
2017-08-15T07:15:02.370Z,1004.9
2017-08-15T07:16:03.799Z,1005.0
2017-08-15T07:17:05.204Z,1005.0
2017-08-15T07:18:06.644Z,1005.0
2017-08-15T07:19:08.061Z,1005.0
2017-08-15T07:20:09.478Z,1005.0
2017-08-15T07:21:10.920Z,1005.0
2017-08-15T07:22:12.420Z,1005.0
2017-08-15T07:23:14.025Z,1005.0
2017-08-15T07:24:15.670Z,1005.0
2017-08-15T07:25:17.280Z,1005.0
2017-08-15T07:26:18.924Z,1005.1
2017-08-15T07:27:20.567Z,1005.1
2017-08-15T07:28:22.199Z,1005.1
2017-08-15T07:29:23.741Z,1005.1
2017-08-15T07:30:25.760Z,1005.1
2017-08-15T07:31:27.366Z,1005.2
2017-08-15T07:32:30.342Z,1005.1
2017-08-15T07:33:31.998Z,1005.1
2017-08-15T07:34:33.634Z,1005.2
2017-08-15T07:35:35.272Z,1005.2
2017-08-15T07:36:36.966Z,1005.2
2017-08-15T07:37:38.673Z,1005.2
2017-08-15T07:38:40.238Z,1005.2
2017-08-15T07:39:41.912Z,1005.2
2017-08-15T07:40:43.969Z,1005.2
2017-08-15T07:41:45.605Z,1005.2
2017-08-15T07:42:48.206Z,1005.2
2017-08-15T07:43:50.098Z,1005.2
2017-08-15T07:44:52.681Z,1005.2
2017-08-15T07:45:54.295Z,1005.2
2017-08-15T07:46:55.923Z,1005.2
2017-08-15T07:47:57.600Z,1005.1
2017-08-15T07:48:59.253Z,1005.1
2017-08-15T07:50:00.957Z,1005.1
2017-08-15T07:51:02.615Z,1005.0
2017-08-15T07:52:04.355Z,1005.0
2017-08-15T07:53:05.966Z,1005.0
2017-08-15T07:54:07.648Z,1005.0
2017-08-15T07:55:09.376Z,1005.0
2017-08-15T07:56:11.046Z,1005.0
2017-08-15T07:57:12.815Z,1005.0
2017-08-15T07:58:14.530Z,1005.1
2017-08-15T07:59:16.128Z,1005.1
2017-08-15T08:00:17.719Z,1005.1
2017-08-15T08:01:42.529Z,1005.0
2017-08-15T08:02:43.943Z,1005.1
2017-08-15T08:03:45.433Z,1005.0
2017-08-15T08:04:46.843Z,1005.1
2017-08-15T08:05:48.259Z,1005.1
2017-08-15T08:06:49.676Z,1005.1
2017-08-15T08:07:51.116Z,1005.0
2017-08-15T08:08:52.549Z,1005.1
2017-08-15T08:09:53.982Z,1005.1
2017-08-15T08:10:55.433Z,1005.1
2017-08-15T08:11:56.939Z,1005.1
2017-08-15T08:12:58.354Z,1005.1
2017-08-15T08:13:59.824Z,1005.1
2017-08-15T08:15:01.252Z,1005.2
2017-08-15T08:16:02.739Z,1005.2
2017-08-15T08:17:04.169Z,1005.2
2017-08-15T08:18:06.722Z,1005.2
2017-08-15T08:19:08.459Z,1005.2
2017-08-15T08:20:11.123Z,1005.2
2017-08-15T08:21:12.669Z,1005.2
2017-08-15T08:22:14.327Z,1005.2
2017-08-15T08:23:16.089Z,1005.2
2017-08-15T08:24:17.814Z,1005.3
2017-08-15T08:25:19.436Z,1005.3
2017-08-15T08:26:21.157Z,1005.3
2017-08-15T08:27:22.701Z,1005.3
2017-08-15T08:28:24.618Z,1005.3
2017-08-15T08:29:26.220Z,1005.3
2017-08-15T08:30:28.036Z,1005.3
2017-08-15T08:31:30.106Z,1005.4
2017-08-15T08:32:31.720Z,1005.4
2017-08-15T08:33:33.323Z,1005.3
2017-08-15T08:34:34.954Z,1005.3
2017-08-15T08:35:36.615Z,1005.3
2017-08-15T08:36:38.272Z,1005.3
2017-08-15T08:37:39.924Z,1005.3
2017-08-15T08:38:42.233Z,1005.3
2017-08-15T08:39:43.910Z,1005.3
2017-08-15T08:40:45.596Z,1005.4
2017-08-15T08:41:47.337Z,1005.4
2017-08-15T08:42:48.950Z,1005.4
2017-08-15T08:43:50.616Z,1005.4
2017-08-15T08:44:52.312Z,1005.4
2017-08-15T08:45:53.951Z,1005.4
2017-08-15T08:46:57.647Z,1005.4
2017-08-15T08:47:59.343Z,1005.4
2017-08-15T08:49:02.065Z,1005.4
2017-08-15T08:50:03.815Z,1005.4
2017-08-15T08:51:05.625Z,1005.4
2017-08-15T08:52:07.381Z,1005.4
2017-08-15T08:53:08.922Z,1005.4
2017-08-15T08:54:10.508Z,1005.5
2017-08-15T08:55:12.172Z,1005.5
2017-08-15T08:56:13.688Z,1005.5
2017-08-15T08:57:15.230Z,1005.5
2017-08-15T08:58:16.843Z,1005.5
2017-08-15T08:59:18.406Z,1005.5
2017-08-15T09:00:20.066Z,1005.5
2017-08-15T09:01:41.776Z,1005.5
2017-08-15T09:02:43.177Z,1005.4
2017-08-15T09:03:45.615Z,1005.4
2017-08-15T09:04:47.021Z,1005.4
2017-08-15T09:05:48.465Z,1005.4
2017-08-15T09:06:50.085Z,1005.5
2017-08-15T09:07:53.552Z,1005.4
2017-08-15T09:08:54.993Z,1005.4
2017-08-15T09:09:56.811Z,1005.3
2017-08-15T09:10:58.320Z,1005.4
2017-08-15T09:11:59.876Z,1005.3
2017-08-15T09:13:02.040Z,1005.3
2017-08-15T09:14:04.757Z,1005.3
2017-08-15T09:15:06.524Z,1005.2
2017-08-15T09:16:08.183Z,1005.2
2017-08-15T09:17:09.765Z,1005.2
2017-08-15T09:18:11.361Z,1005.2
2017-08-15T09:19:12.973Z,1005.1
2017-08-15T09:20:14.566Z,1005.1
2017-08-15T09:21:16.142Z,1005.1
2017-08-15T09:22:17.763Z,1005.1
2017-08-15T09:23:19.523Z,1005.1
2017-08-15T09:24:21.139Z,1005.1
2017-08-15T09:25:22.772Z,1005.0
2017-08-15T09:26:24.449Z,1005.0
2017-08-15T09:27:26.059Z,1005.0
2017-08-15T09:28:27.726Z,1005.0
2017-08-15T09:29:29.411Z,1005.0
2017-08-15T09:30:31.255Z,1005.0
2017-08-15T09:31:32.852Z,1005.0
2017-08-15T09:32:34.500Z,1005.0
2017-08-15T09:33:36.353Z,1005.1
2017-08-15T09:34:37.991Z,1005.1
2017-08-15T09:35:39.858Z,1005.1
2017-08-15T09:36:41.558Z,1005.1
2017-08-15T09:37:43.254Z,1005.1
2017-08-15T09:38:44.979Z,1005.1
2017-08-15T09:39:46.561Z,1005.1
2017-08-15T09:40:48.281Z,1005.1
2017-08-15T09:41:49.788Z,1005.1
2017-08-15T09:42:51.368Z,1005.1
2017-08-15T09:43:53.029Z,1005.1
2017-08-15T09:44:54.632Z,1005.1
2017-08-15T09:45:56.711Z,1005.1
2017-08-15T09:46:58.347Z,1005.1
2017-08-15T09:47:59.922Z,1005.1
2017-08-15T09:49:01.564Z,1005.1
2017-08-15T09:50:03.256Z,1005.1
2017-08-15T09:51:04.933Z,1005.1
2017-08-15T09:52:06.702Z,1005.1
2017-08-15T09:53:08.416Z,1005.1
2017-08-15T09:54:10.015Z,1005.1
2017-08-15T09:55:11.670Z,1005.1
2017-08-15T09:56:13.194Z,1005.2
2017-08-15T09:57:14.808Z,1005.2
2017-08-15T09:58:16.435Z,1005.2
2017-08-15T09:59:18.060Z,1005.2
2017-08-15T10:00:19.620Z,1005.1
2017-08-15T10:01:41.824Z,1005.0
2017-08-15T10:02:43.268Z,1005.0
2017-08-15T10:03:44.729Z,1005.0
2017-08-15T10:04:46.213Z,1005.0
2017-08-15T10:05:47.652Z,1005.0
2017-08-15T10:06:49.102Z,1004.9
2017-08-15T10:07:50.519Z,1004.9
2017-08-15T10:08:51.983Z,1004.9
2017-08-15T10:09:53.404Z,1004.9
2017-08-15T10:10:54.872Z,1004.9
2017-08-15T10:11:56.302Z,1004.9
2017-08-15T10:12:57.813Z,1004.9
2017-08-15T10:13:59.507Z,1004.8
2017-08-15T10:15:01.156Z,1004.8
2017-08-15T10:16:02.957Z,1004.8
2017-08-15T10:17:04.594Z,1004.8
2017-08-15T10:18:06.421Z,1004.8
2017-08-15T10:19:08.005Z,1004.8
2017-08-15T10:20:09.745Z,1004.8
2017-08-15T10:21:11.437Z,1004.8
2017-08-15T10:22:13.039Z,1004.8
2017-08-15T10:23:14.636Z,1004.8
2017-08-15T10:24:16.298Z,1004.8
2017-08-15T10:25:18.142Z,1004.9
2017-08-15T10:26:19.904Z,1004.9
2017-08-15T10:27:21.547Z,1004.9
2017-08-15T10:28:23.159Z,1004.8
2017-08-15T10:29:24.770Z,1004.9
2017-08-15T10:30:26.571Z,1004.9
2017-08-15T10:31:28.194Z,1004.9
2017-08-15T10:32:29.832Z,1004.8
2017-08-15T10:33:31.412Z,1004.9
2017-08-15T10:34:33.010Z,1004.9
2017-08-15T10:35:34.601Z,1004.9
2017-08-15T10:36:36.254Z,1004.9
2017-08-15T10:37:37.846Z,1004.9
2017-08-15T10:38:39.470Z,1004.8
2017-08-15T10:39:41.108Z,1004.9
2017-08-15T10:40:42.744Z,1004.8
2017-08-15T10:41:44.348Z,1004.8
2017-08-15T10:42:47.003Z,1004.8
2017-08-15T10:43:48.600Z,1004.8
2017-08-15T10:44:50.157Z,1004.8
2017-08-15T10:45:51.796Z,1004.8
2017-08-15T10:46:53.450Z,1004.8
2017-08-15T10:47:55.102Z,1004.8
2017-08-15T10:48:56.761Z,1004.8
2017-08-15T10:49:58.404Z,1004.8
2017-08-15T10:50:59.946Z,1004.8
2017-08-15T10:52:01.493Z,1004.8
2017-08-15T10:53:03.143Z,1004.8
2017-08-15T10:54:04.780Z,1004.8
2017-08-15T10:55:06.373Z,1004.7
2017-08-15T10:56:08.213Z,1004.8
2017-08-15T10:57:09.820Z,1004.8
2017-08-15T10:58:11.447Z,1004.8
2017-08-15T10:59:13.045Z,1004.8
2017-08-15T11:00:14.699Z,1004.8
2017-08-15T11:01:16.400Z,1004.8
2017-08-15T11:02:18.202Z,1004.8
2017-08-15T11:03:19.795Z,1004.8
2017-08-15T11:04:21.441Z,1004.8
2017-08-15T11:05:23.053Z,1004.8
2017-08-15T11:06:24.608Z,1004.8
2017-08-15T11:07:26.257Z,1004.8
2017-08-15T11:08:27.875Z,1004.8
2017-08-15T11:09:29.596Z,1004.8
2017-08-15T11:10:31.276Z,1004.7
2017-08-15T11:11:32.925Z,1004.7
2017-08-15T11:12:34.489Z,1004.7
2017-08-15T11:13:36.051Z,1004.7
2017-08-15T11:14:37.668Z,1004.7
2017-08-15T11:15:39.229Z,1004.7
2017-08-15T11:16:40.809Z,1004.7
2017-08-15T11:17:42.388Z,1004.7
2017-08-15T11:18:44.011Z,1004.7
2017-08-15T11:19:45.600Z,1004.7
2017-08-15T11:20:47.173Z,1004.6
2017-08-15T11:21:48.804Z,1004.6
2017-08-15T11:22:50.438Z,1004.7
2017-08-15T11:23:52.011Z,1004.7
2017-08-15T11:24:53.714Z,1004.7
2017-08-15T11:25:55.371Z,1004.7
2017-08-15T11:26:56.944Z,1004.7
2017-08-15T11:27:58.604Z,1004.7
2017-08-15T11:29:00.258Z,1004.8
2017-08-15T11:30:01.937Z,1004.8
2017-08-15T11:31:03.567Z,1004.9
2017-08-15T11:32:05.205Z,1004.9
2017-08-15T11:33:07.014Z,1005.0
2017-08-15T11:34:08.762Z,1005.1
2017-08-15T11:35:10.419Z,1005.1
2017-08-15T11:36:13.057Z,1005.1
2017-08-15T11:37:14.684Z,1005.0
2017-08-15T11:38:16.377Z,1005.1
2017-08-15T11:39:18.050Z,1004.9
2017-08-15T11:40:19.637Z,1005.0
2017-08-15T11:41:21.313Z,1004.8
2017-08-15T11:42:22.919Z,1004.8
2017-08-15T11:43:24.554Z,1004.7
2017-08-15T11:44:26.282Z,1004.7
2017-08-15T11:45:27.992Z,1004.7
2017-08-15T11:46:29.646Z,1004.7
2017-08-15T11:47:31.242Z,1004.8
2017-08-15T11:48:32.971Z,1004.7
2017-08-15T11:49:34.621Z,1004.6
2017-08-15T11:50:36.283Z,1004.6
2017-08-15T11:51:37.909Z,1004.5
2017-08-15T11:52:39.568Z,1004.5
2017-08-15T11:53:41.263Z,1004.6
2017-08-15T11:54:42.946Z,1004.8
2017-08-15T11:55:44.541Z,1004.9
2017-08-15T11:56:46.125Z,1004.9
2017-08-15T11:57:47.769Z,1005.1
2017-08-15T11:58:49.320Z,1005.2
2017-08-15T11:59:50.989Z,1005.2
2017-08-15T12:00:52.715Z,1005.2
2017-08-15T12:01:54.394Z,1005.1
2017-08-15T12:02:56.121Z,1005.1
2017-08-15T12:03:57.766Z,1005.1
2017-08-15T12:04:59.490Z,1005.1
2017-08-15T12:06:01.110Z,1005.1
2017-08-15T12:07:02.791Z,1005.2
2017-08-15T12:08:04.436Z,1005.2
2017-08-15T12:09:06.117Z,1005.2
2017-08-15T12:10:07.801Z,1005.1
2017-08-15T12:11:09.552Z,1005.2
2017-08-15T12:12:11.191Z,1005.2
2017-08-15T12:13:12.881Z,1005.2
2017-08-15T12:14:14.460Z,1005.2
2017-08-15T12:15:16.056Z,1005.2
2017-08-15T12:16:17.721Z,1005.3
2017-08-15T12:17:19.369Z,1005.3
2017-08-15T12:18:21.037Z,1005.3
2017-08-15T12:19:22.674Z,1005.3
2017-08-15T12:20:24.305Z,1005.2
2017-08-15T12:21:25.988Z,1005.2
2017-08-15T12:22:27.715Z,1005.3
2017-08-15T12:23:29.324Z,1005.2
2017-08-15T12:24:30.947Z,1005.3
2017-08-15T12:25:32.501Z,1005.3
2017-08-15T12:26:34.052Z,1005.4
2017-08-15T12:27:35.890Z,1005.5
2017-08-15T12:28:37.432Z,1005.6
2017-08-15T12:29:39.018Z,1005.7
2017-08-15T12:30:40.606Z,1005.6
2017-08-15T12:31:42.317Z,1005.5
2017-08-15T12:32:43.862Z,1005.5
2017-08-15T12:33:46.708Z,1005.5
2017-08-15T12:34:48.251Z,1005.6
2017-08-15T12:35:49.791Z,1005.6
2017-08-15T12:36:51.391Z,1005.6
2017-08-15T12:37:52.993Z,1005.6
2017-08-15T12:38:54.629Z,1005.6
2017-08-15T12:39:56.296Z,1005.7
2017-08-15T12:40:57.842Z,1005.8
2017-08-15T12:41:59.487Z,1005.8
2017-08-15T12:43:01.131Z,1005.9
2017-08-15T12:44:03.722Z,1005.9
2017-08-15T12:45:05.293Z,1005.9
2017-08-15T12:46:06.892Z,1006.0
2017-08-15T12:47:08.461Z,1005.9
2017-08-15T12:48:10.111Z,1005.9
2017-08-15T12:49:11.746Z,1005.7
2017-08-15T12:50:13.371Z,1005.8
2017-08-15T12:51:15.097Z,1005.8